createdAt,value
2018-01-07T00:01:37.501Z,4.23
2018-01-07T00:04:05.013Z,3.80
2018-01-07T00:06:32.516Z,4.10
2018-01-07T00:09:00.030Z,3.80
2018-01-07T00:11:27.577Z,3.90
2018-01-07T00:13:55.084Z,4.47
2018-01-07T00:16:22.605Z,4.17
2018-01-07T00:18:50.124Z,3.50
2018-01-07T00:21:17.641Z,3.83
2018-01-07T00:23:45.157Z,3.83
2018-01-07T00:26:12.665Z,3.90
2018-01-07T00:28:40.194Z,3.47
2018-01-07T00:31:07.720Z,3.60
2018-01-07T00:33:35.272Z,3.67
2018-01-07T00:36:02.789Z,4.10
2018-01-07T00:38:30.293Z,4.30
2018-01-07T00:40:57.798Z,4.00
2018-01-07T00:43:25.315Z,4.53
2018-01-07T00:45:52.819Z,4.20
2018-01-07T00:48:20.448Z,3.90
2018-01-07T00:50:47.953Z,4.53
2018-01-07T00:53:15.477Z,4.63
2018-01-07T00:55:43.000Z,3.70
2018-01-07T00:58:10.509Z,3.97
2018-01-07T01:00:38.030Z,4.20
2018-01-07T01:03:05.589Z,4.10
2018-01-07T01:05:33.092Z,3.73
2018-01-07T01:08:00.600Z,3.70
2018-01-07T01:10:28.113Z,3.67
2018-01-07T01:12:55.665Z,4.10
2018-01-07T01:15:23.178Z,3.50
2018-01-07T01:17:50.689Z,3.60
2018-01-07T01:20:18.210Z,3.43
2018-01-07T01:22:45.754Z,3.83
2018-01-07T01:25:13.316Z,3.57
2018-01-07T01:27:40.829Z,3.80
2018-01-07T01:30:08.328Z,3.70
2018-01-07T01:32:35.849Z,4.10
2018-01-07T01:35:03.454Z,4.30
2018-01-07T01:37:30.961Z,4.17
2018-01-07T01:39:58.468Z,4.20
2018-01-07T01:42:26.030Z,4.80
2018-01-07T01:44:53.589Z,4.53
2018-01-07T01:47:21.100Z,4.00
2018-01-07T01:49:48.719Z,4.40
2018-01-07T01:52:16.220Z,4.37
2018-01-07T01:54:43.737Z,4.33
2018-01-07T01:57:11.236Z,4.60
2018-01-07T01:59:38.740Z,3.97
2018-01-07T02:02:06.243Z,4.77
2018-01-07T02:04:33.756Z,4.73
2018-01-07T02:07:01.281Z,4.53
2018-01-07T02:09:28.793Z,4.90
2018-01-07T02:11:56.341Z,4.53
2018-01-07T02:14:23.842Z,5.00
2018-01-07T02:16:51.336Z,5.00
2018-01-07T02:19:18.866Z,4.90
2018-01-07T02:21:47.013Z,4.90
2018-01-07T02:24:14.516Z,4.80
2018-01-07T02:26:42.034Z,5.37
2018-01-07T02:29:09.548Z,5.17
2018-01-07T02:31:37.128Z,5.00
2018-01-07T02:34:04.641Z,4.70
2018-01-07T02:36:32.245Z,4.90
2018-01-07T02:38:59.768Z,5.10
2018-01-07T02:41:27.281Z,4.97
2018-01-07T02:43:54.805Z,4.23
2018-01-07T02:46:22.364Z,4.70
2018-01-07T02:48:49.889Z,5.00
2018-01-07T02:51:17.397Z,4.53
2018-01-07T02:53:44.899Z,4.60
2018-01-07T02:56:12.409Z,4.50
2018-01-07T02:58:39.930Z,4.60
2018-01-07T03:01:07.459Z,4.13
2018-01-07T03:03:34.969Z,4.67
2018-01-07T03:06:02.480Z,3.20
2018-01-07T03:08:30.027Z,3.00
2018-01-07T03:10:57.585Z,2.97
2018-01-07T03:13:25.084Z,2.60
2018-01-07T03:15:52.612Z,2.17
2018-01-07T03:18:20.113Z,2.37
2018-01-07T03:20:47.656Z,2.30
2018-01-07T03:23:15.169Z,2.77
2018-01-07T03:25:42.678Z,2.20
2018-01-07T03:28:10.181Z,2.00
2018-01-07T03:30:37.723Z,2.50
2018-01-07T03:33:05.244Z,2.87
2018-01-07T03:35:32.757Z,3.17
2018-01-07T03:38:00.320Z,2.23
2018-01-07T03:40:27.894Z,2.37
2018-01-07T03:42:55.470Z,2.47
2018-01-07T03:45:22.972Z,2.37
2018-01-07T03:47:50.568Z,2.20
2018-01-07T03:50:18.068Z,2.47
2018-01-07T03:52:45.568Z,2.63
2018-01-07T03:55:13.090Z,2.67
2018-01-07T03:57:40.618Z,2.20
2018-01-07T04:00:08.129Z,2.30
2018-01-07T04:02:35.661Z,2.27
2018-01-07T04:05:03.160Z,2.37
2018-01-07T04:07:30.705Z,2.27
2018-01-07T04:09:58.223Z,2.33
2018-01-07T04:12:25.726Z,2.33
2018-01-07T04:14:53.240Z,2.40
2018-01-07T04:17:20.772Z,2.20
2018-01-07T04:19:48.268Z,2.40
2018-01-07T04:22:15.907Z,2.00
2018-01-07T04:24:43.424Z,2.10
2018-01-07T04:27:10.936Z,2.20
2018-01-07T04:29:38.456Z,2.23
2018-01-07T04:32:06.010Z,2.20
2018-01-07T04:34:33.603Z,1.97
2018-01-07T04:37:01.100Z,2.00
2018-01-07T04:39:28.608Z,2.40
2018-01-07T04:41:56.190Z,2.23
2018-01-07T04:44:23.717Z,2.00
2018-01-07T04:46:51.230Z,2.10
2018-01-07T04:49:18.733Z,2.40
2018-01-07T04:51:46.287Z,2.20
2018-01-07T04:54:13.849Z,2.07
2018-01-07T04:56:41.377Z,2.30
2018-01-07T04:59:08.909Z,2.20
2018-01-07T05:01:36.429Z,2.00
2018-01-07T05:04:03.988Z,2.50
2018-01-07T05:06:31.510Z,1.93
2018-01-07T05:08:59.029Z,2.47
2018-01-07T05:11:26.600Z,2.20
2018-01-07T05:13:54.132Z,2.13
2018-01-07T05:16:21.645Z,2.23
2018-01-07T05:18:49.145Z,2.10
2018-01-07T05:21:16.661Z,2.27
2018-01-07T05:23:44.185Z,2.10
2018-01-07T05:26:11.689Z,2.13
2018-01-07T05:28:39.314Z,2.23
2018-01-07T05:31:06.831Z,1.93
2018-01-07T05:33:34.359Z,2.07
2018-01-07T05:36:01.973Z,2.10
2018-01-07T05:38:29.533Z,2.20
2018-01-07T05:40:57.032Z,2.20
2018-01-07T05:43:24.540Z,2.23
2018-01-07T05:45:52.105Z,2.40
2018-01-07T05:48:19.612Z,2.90
2018-01-07T05:50:47.168Z,2.30
2018-01-07T05:53:14.665Z,2.60
2018-01-07T05:55:42.167Z,2.87
2018-01-07T05:58:09.686Z,2.80
2018-01-07T06:00:37.274Z,2.70
2018-01-07T06:03:04.782Z,2.50
2018-01-07T06:05:32.394Z,2.20
2018-01-07T06:07:59.969Z,1.90
2018-01-07T06:10:27.486Z,1.90
2018-01-07T06:12:55.082Z,1.73
2018-01-07T06:15:22.595Z,1.63
2018-01-07T06:17:50.105Z,2.03
2018-01-07T06:20:17.612Z,2.00
2018-01-07T06:22:45.144Z,2.27
2018-01-07T06:25:12.666Z,1.93
2018-01-07T06:27:40.178Z,2.10
2018-01-07T06:30:07.697Z,1.90
2018-01-07T06:32:35.254Z,1.80
2018-01-07T06:35:02.812Z,2.07
2018-01-07T06:37:30.337Z,1.87
2018-01-07T06:39:57.863Z,2.10
2018-01-07T06:42:25.517Z,1.97
2018-01-07T06:44:53.047Z,2.17
2018-01-07T06:47:20.578Z,2.07
2018-01-07T06:49:48.102Z,2.50
2018-01-07T06:52:15.627Z,2.10
2018-01-07T06:54:43.200Z,2.33
2018-01-07T06:57:10.716Z,2.33
2018-01-07T06:59:38.330Z,2.40
2018-01-07T07:02:05.858Z,2.60
2018-01-07T07:04:33.436Z,2.20
2018-01-07T07:07:00.944Z,2.70
2018-01-07T07:09:28.441Z,2.40
2018-01-07T07:11:56.592Z,2.60
2018-01-07T07:14:24.109Z,3.27
2018-01-07T07:16:51.616Z,2.90
2018-01-07T07:19:19.157Z,3.13
2018-01-07T07:21:46.672Z,3.77
2018-01-07T07:24:14.193Z,3.70
2018-01-07T07:26:41.701Z,3.17
2018-01-07T07:29:09.203Z,3.93
2018-01-07T07:31:36.710Z,3.60
2018-01-07T07:34:04.218Z,4.30
2018-01-07T07:36:31.725Z,4.70
2018-01-07T07:38:59.276Z,5.07
2018-01-07T07:41:26.836Z,5.20
2018-01-07T07:43:54.337Z,5.47
2018-01-07T07:46:21.835Z,5.03
2018-01-07T07:48:49.409Z,6.00
2018-01-07T07:51:16.969Z,5.30
2018-01-07T07:53:44.487Z,5.73
2018-01-07T07:56:12.088Z,6.00
2018-01-07T07:58:39.650Z,7.10
2018-01-07T08:01:07.167Z,6.03
2018-01-07T08:03:34.778Z,5.93
2018-01-07T08:06:02.315Z,5.83
2018-01-07T08:08:29.844Z,5.30
2018-01-07T08:10:57.362Z,5.90
2018-01-07T08:13:24.877Z,5.80
2018-01-07T08:15:52.470Z,5.27
2018-01-07T08:18:19.977Z,5.27
2018-01-07T08:20:47.524Z,5.63
2018-01-07T08:23:15.041Z,4.50
2018-01-07T08:25:42.559Z,4.77
2018-01-07T08:28:10.069Z,4.37
2018-01-07T08:30:37.577Z,4.70
2018-01-07T08:33:05.090Z,4.20
2018-01-07T08:35:32.620Z,4.30
2018-01-07T08:38:00.190Z,3.97
2018-01-07T08:40:27.766Z,3.90
2018-01-07T08:42:55.401Z,4.50
2018-01-07T08:45:22.912Z,3.80
2018-01-07T08:47:50.429Z,4.50
2018-01-07T08:50:17.949Z,3.90
2018-01-07T08:52:45.565Z,3.93
2018-01-07T08:55:13.118Z,4.07
2018-01-07T08:57:40.640Z,4.30
2018-01-07T09:00:08.148Z,3.87
2018-01-07T09:02:35.662Z,3.37
2018-01-07T09:05:03.189Z,3.13
2018-01-07T09:07:30.705Z,3.53
2018-01-07T09:09:58.213Z,2.93
2018-01-07T09:12:25.732Z,3.43
2018-01-07T09:14:53.322Z,2.90
2018-01-07T09:17:20.831Z,3.17
2018-01-07T09:19:48.417Z,2.80
2018-01-07T09:22:15.933Z,2.77
2018-01-07T09:24:43.459Z,3.03
2018-01-07T09:27:10.990Z,2.60
2018-01-07T09:29:38.554Z,2.80
2018-01-07T09:32:06.069Z,2.50
2018-01-07T09:34:33.613Z,2.40
2018-01-07T09:37:01.133Z,2.37
2018-01-07T09:39:28.665Z,2.57
2018-01-07T09:41:56.176Z,2.40
2018-01-07T09:44:23.689Z,2.47
2018-01-07T09:46:51.271Z,2.77
2018-01-07T09:49:18.777Z,2.80
2018-01-07T09:51:46.299Z,2.70
2018-01-07T09:54:13.804Z,2.33
2018-01-07T09:56:41.332Z,2.60
2018-01-07T09:59:08.862Z,2.40
2018-01-07T10:01:36.409Z,1.80
2018-01-07T10:04:03.974Z,1.97
2018-01-07T10:06:31.558Z,2.40
2018-01-07T10:08:59.072Z,2.37
2018-01-07T10:11:26.585Z,2.03
2018-01-07T10:13:54.104Z,1.80
2018-01-07T10:16:21.606Z,1.80
2018-01-07T10:18:49.113Z,1.93
2018-01-07T10:21:16.683Z,1.80
2018-01-07T10:23:44.273Z,1.83
2018-01-07T10:26:11.767Z,1.73
2018-01-07T10:28:39.278Z,1.47
2018-01-07T10:31:06.790Z,1.90
2018-01-07T10:33:34.336Z,1.50
2018-01-07T10:36:01.855Z,1.37
2018-01-07T10:38:29.378Z,1.50
2018-01-07T10:40:56.965Z,1.50
2018-01-07T10:43:24.499Z,1.50
2018-01-07T10:45:52.028Z,1.67
2018-01-07T10:48:19.640Z,1.70
2018-01-07T10:50:47.155Z,1.70
2018-01-07T10:53:14.677Z,1.40
2018-01-07T10:55:42.195Z,1.93
2018-01-07T10:58:09.697Z,1.60
2018-01-07T11:00:42.887Z,1.87
2018-01-07T11:03:10.425Z,1.60
2018-01-07T11:05:38.745Z,1.50
2018-01-07T11:08:06.368Z,1.57
2018-01-07T11:10:33.938Z,1.40
2018-01-07T11:13:01.440Z,1.23
2018-01-07T11:15:28.957Z,1.47
2018-01-07T11:17:56.478Z,1.40
2018-01-07T11:20:23.989Z,1.67
2018-01-07T11:22:51.494Z,1.57
2018-01-07T11:25:19.003Z,1.60
2018-01-07T11:27:46.504Z,1.80
2018-01-07T11:30:14.290Z,1.73
2018-01-07T11:32:42.754Z,2.10
2018-01-07T11:35:10.284Z,1.57
2018-01-07T11:37:37.802Z,1.50
2018-01-07T11:40:05.305Z,1.80
2018-01-07T11:42:32.804Z,1.97
2018-01-07T11:45:00.322Z,1.40
2018-01-07T11:47:27.941Z,1.40
2018-01-07T11:49:55.522Z,1.40
2018-01-07T11:52:23.023Z,1.40
2018-01-07T11:54:50.535Z,1.47
2018-01-07T11:57:18.045Z,1.37
2018-01-07T11:59:45.585Z,1.80
2018-01-07T12:02:13.205Z,2.30
2018-01-07T12:04:40.709Z,1.97
2018-01-07T12:07:08.224Z,2.00
2018-01-07T12:09:35.779Z,1.90
2018-01-07T12:12:03.341Z,2.23
2018-01-07T12:14:30.848Z,1.77
2018-01-07T12:16:58.492Z,2.07
2018-01-07T12:19:26.007Z,2.70
2018-01-07T12:21:53.546Z,2.37
2018-01-07T12:24:21.155Z,2.30
2018-01-07T12:26:49.450Z,1.90
2018-01-07T12:29:16.961Z,2.73
2018-01-07T12:31:44.533Z,2.30
2018-01-07T12:34:12.037Z,2.37
2018-01-07T12:36:39.658Z,2.40
2018-01-07T12:39:07.847Z,2.40
2018-01-07T12:41:35.385Z,2.20
2018-01-07T12:44:02.892Z,2.33
2018-01-07T12:46:30.393Z,2.60
2018-01-07T12:48:57.964Z,2.60
2018-01-07T12:51:25.474Z,1.87
2018-01-07T12:53:52.985Z,2.40
2018-01-07T12:56:20.484Z,2.20
2018-01-07T12:58:47.991Z,2.30
2018-01-07T13:01:15.503Z,2.17
2018-01-07T13:03:43.018Z,1.80
2018-01-07T13:06:10.591Z,2.20
2018-01-07T13:08:38.478Z,2.37
2018-01-07T13:11:06.022Z,1.97
2018-01-07T13:13:33.582Z,2.40
2018-01-07T13:16:01.112Z,2.60
2018-01-07T13:18:28.620Z,2.40
2018-01-07T13:20:56.154Z,2.80
2018-01-07T13:23:23.817Z,2.40
2018-01-07T13:25:51.382Z,2.63
2018-01-07T13:28:18.909Z,1.70
2018-01-07T13:30:46.424Z,2.20
2018-01-07T13:33:13.933Z,2.33
2018-01-07T13:35:41.530Z,2.03
2018-01-07T13:38:09.059Z,2.03
2018-01-07T13:40:36.643Z,2.40
2018-01-07T13:43:04.166Z,2.43
2018-01-07T13:45:31.678Z,1.90
2018-01-07T13:47:59.273Z,2.30
2018-01-07T13:50:26.867Z,2.03
2018-01-07T13:52:54.374Z,1.77
2018-01-07T13:55:21.896Z,2.00
2018-01-07T13:57:49.408Z,2.27
2018-01-07T14:00:16.945Z,2.20
2018-01-07T14:02:44.556Z,2.43
2018-01-07T14:05:12.136Z,2.30
2018-01-07T14:07:39.676Z,2.40
2018-01-07T14:10:07.251Z,2.50
2018-01-07T14:12:34.757Z,2.43
2018-01-07T14:15:02.262Z,3.10
2018-01-07T14:17:29.777Z,2.20
2018-01-07T14:19:57.293Z,2.60
2018-01-07T14:22:24.811Z,2.40
2018-01-07T14:24:52.309Z,2.37
2018-01-07T14:27:19.833Z,2.53
2018-01-07T14:29:47.339Z,2.47
2018-01-07T14:32:14.853Z,2.33
2018-01-07T14:34:42.414Z,2.40
2018-01-07T14:37:09.945Z,2.60
2018-01-07T14:39:37.456Z,2.83
2018-01-07T14:42:04.982Z,3.10
2018-01-07T14:44:32.522Z,3.07
2018-01-07T14:47:00.044Z,2.80
2018-01-07T14:49:27.569Z,2.90
2018-01-07T14:51:55.072Z,2.80
2018-01-07T14:54:22.585Z,2.60
2018-01-07T14:56:50.100Z,3.17
2018-01-07T14:59:17.601Z,2.40
2018-01-07T15:01:45.105Z,3.05
2018-01-07T15:04:12.625Z,2.80
2018-01-07T15:06:40.211Z,3.53
2018-01-07T15:09:07.729Z,2.77
2018-01-07T15:11:35.237Z,2.80
2018-01-07T15:14:02.780Z,2.70
2018-01-07T15:16:30.306Z,2.90
2018-01-07T15:18:57.821Z,2.97
2018-01-07T15:21:25.372Z,2.90
2018-01-07T15:23:52.914Z,3.20
2018-01-07T15:26:20.494Z,3.07
2018-01-07T15:28:48.051Z,2.80
2018-01-07T15:31:15.569Z,2.80
2018-01-07T15:33:43.108Z,2.80
2018-01-07T15:36:10.622Z,3.17
2018-01-07T15:38:38.140Z,3.07
2018-01-07T15:41:05.652Z,3.00
2018-01-07T15:43:33.169Z,2.97
2018-01-07T15:46:00.673Z,3.67
2018-01-07T15:48:28.180Z,3.10
2018-01-07T15:50:55.719Z,3.27
2018-01-07T15:53:23.310Z,2.97
2018-01-07T15:55:50.897Z,3.43
2018-01-07T15:58:18.413Z,3.37
2018-01-07T16:00:45.954Z,3.40
2018-01-07T16:03:13.470Z,3.70
2018-01-07T16:05:40.993Z,3.83
2018-01-07T16:08:08.530Z,4.00
2018-01-07T16:10:36.034Z,3.20
2018-01-07T16:13:03.547Z,3.90
2018-01-07T16:15:31.045Z,3.70
2018-01-07T16:17:58.564Z,3.40
2018-01-07T16:20:26.080Z,3.43
2018-01-07T16:22:53.609Z,4.20
2018-01-07T16:25:21.129Z,3.70
2018-01-07T16:27:48.630Z,4.20
2018-01-07T16:30:16.136Z,3.63
2018-01-07T16:32:43.646Z,4.23
2018-01-07T16:35:11.180Z,3.87
2018-01-07T16:37:38.692Z,4.00
2018-01-07T16:40:06.210Z,4.07
2018-01-07T16:42:33.726Z,4.13
2018-01-07T16:45:01.289Z,3.90
2018-01-07T16:47:28.798Z,3.73
2018-01-07T16:49:56.313Z,4.27
2018-01-07T16:52:23.845Z,3.90
2018-01-07T16:54:51.362Z,4.50
2018-01-07T16:57:18.993Z,4.77
2018-01-07T16:59:46.541Z,4.43
2018-01-07T17:02:14.050Z,4.17
2018-01-07T17:04:41.558Z,4.10
2018-01-07T17:07:09.069Z,3.67
2018-01-07T17:09:36.603Z,4.30
2018-01-07T17:12:04.108Z,4.03
2018-01-07T17:14:31.619Z,4.20
2018-01-07T17:16:59.240Z,4.67
2018-01-07T17:19:26.756Z,3.93
2018-01-07T17:21:54.261Z,3.97
2018-01-07T17:24:21.768Z,4.47
2018-01-07T17:26:49.289Z,4.70
2018-01-07T17:29:16.854Z,4.30
2018-01-07T17:31:44.412Z,3.53
2018-01-07T17:34:11.921Z,3.80
2018-01-07T17:36:39.471Z,4.50
2018-01-07T17:39:06.973Z,4.40
2018-01-07T17:41:34.499Z,3.83
2018-01-07T17:44:02.034Z,5.20
2018-01-07T17:46:29.553Z,4.80
2018-01-07T17:48:57.061Z,4.10
2018-01-07T17:51:24.667Z,4.20
2018-01-07T17:53:52.183Z,3.70
2018-01-07T17:56:19.700Z,4.60
2018-01-07T17:58:47.201Z,4.10
2018-01-07T18:01:14.788Z,4.50
2018-01-07T18:03:42.305Z,4.20
2018-01-07T18:06:09.816Z,4.77
2018-01-07T18:08:37.355Z,3.90
2018-01-07T18:11:04.880Z,4.20
2018-01-07T18:13:32.377Z,3.73
2018-01-07T18:15:59.928Z,4.43
2018-01-07T18:18:27.476Z,4.53
2018-01-07T18:20:55.089Z,5.12
2018-01-07T18:23:22.648Z,4.30
2018-01-07T18:25:50.176Z,4.47
2018-01-07T18:28:17.769Z,4.40
2018-01-07T18:30:45.279Z,5.57
2018-01-07T18:33:12.785Z,4.23
2018-01-07T18:35:40.315Z,4.70
2018-01-07T18:38:07.912Z,4.90
2018-01-07T18:40:35.433Z,4.97
2018-01-07T18:43:02.963Z,4.47
2018-01-07T18:45:30.585Z,4.27
2018-01-07T18:47:58.085Z,4.63
2018-01-07T18:50:25.605Z,5.07
2018-01-07T18:52:53.146Z,5.13
2018-01-07T18:55:20.731Z,4.70
2018-01-07T18:57:48.246Z,4.30
2018-01-07T19:00:15.768Z,4.87
2018-01-07T19:02:43.270Z,5.13
2018-01-07T19:05:10.789Z,4.97
2018-01-07T19:07:38.313Z,5.53
2018-01-07T19:10:05.872Z,4.33
2018-01-07T19:12:33.380Z,4.60
2018-01-07T19:15:00.878Z,4.30
2018-01-07T19:17:28.446Z,4.37
2018-01-07T19:19:56.014Z,4.83
2018-01-07T19:22:23.543Z,5.10
2018-01-07T19:24:51.136Z,4.70
2018-01-07T19:27:18.646Z,5.20
2018-01-07T19:29:46.257Z,4.63
2018-01-07T19:32:13.881Z,4.83
2018-01-07T19:34:41.411Z,4.07
2018-01-07T19:37:09.078Z,4.63
2018-01-07T19:39:36.582Z,4.30
2018-01-07T19:42:04.101Z,4.73
2018-01-07T19:44:31.609Z,4.47
2018-01-07T19:46:59.182Z,4.57
2018-01-07T19:49:26.743Z,4.30
2018-01-07T19:51:54.309Z,4.57
2018-01-07T19:54:21.854Z,4.70
2018-01-07T19:56:49.358Z,4.50
2018-01-07T19:59:16.864Z,4.50
2018-01-07T20:01:44.416Z,4.60
2018-01-07T20:04:11.937Z,4.73
2018-01-07T20:06:39.575Z,4.40
2018-01-07T20:09:07.104Z,4.20
2018-01-07T20:11:34.681Z,4.70
2018-01-07T20:14:02.193Z,4.90
2018-01-07T20:16:29.814Z,4.47
2018-01-07T20:18:57.360Z,4.17
2018-01-07T20:21:24.913Z,4.73
2018-01-07T20:23:52.434Z,4.47
2018-01-07T20:26:19.980Z,5.17
2018-01-07T20:28:47.487Z,5.70
2018-01-07T20:31:14.989Z,5.47
2018-01-07T20:33:42.631Z,5.10
2018-01-07T20:36:10.149Z,5.13
2018-01-07T20:38:37.674Z,5.53
2018-01-07T20:41:05.186Z,5.30
2018-01-07T20:43:32.694Z,5.93
2018-01-07T20:46:00.207Z,5.67
2018-01-07T20:48:27.713Z,5.63
2018-01-07T20:50:55.244Z,6.10
2018-01-07T20:53:22.760Z,6.13
2018-01-07T20:55:50.297Z,6.23
2018-01-07T20:58:17.822Z,5.73
2018-01-07T21:00:45.359Z,5.57
2018-01-07T21:03:12.921Z,6.80
2018-01-07T21:05:40.430Z,5.63
2018-01-07T21:08:08.641Z,5.73
2018-01-07T21:10:36.148Z,5.83
2018-01-07T21:13:03.658Z,6.13
2018-01-07T21:15:31.172Z,5.90
2018-01-07T21:17:58.808Z,6.20
2018-01-07T21:20:26.336Z,5.80
2018-01-07T21:22:53.929Z,5.77
2018-01-07T21:25:21.487Z,5.60
2018-01-07T21:27:49.017Z,6.57
2018-01-07T21:30:16.561Z,5.87
2018-01-07T21:32:44.092Z,5.57
2018-01-07T21:35:11.728Z,5.60
2018-01-07T21:37:39.258Z,6.53
2018-01-07T21:40:06.846Z,6.00
2018-01-07T21:42:34.406Z,5.90
2018-01-07T21:45:01.918Z,5.50
2018-01-07T21:47:29.527Z,5.33
2018-01-07T21:49:57.044Z,6.00
2018-01-07T21:52:24.601Z,6.17
2018-01-07T21:54:52.205Z,6.43
2018-01-07T21:57:19.709Z,6.43
2018-01-07T21:59:59.070Z,6.80
2018-01-07T22:02:27.583Z,6.03
2018-01-07T22:04:58.967Z,6.97
2018-01-07T22:07:26.489Z,7.10
2018-01-07T22:09:54.028Z,6.60
2018-01-07T22:12:21.614Z,6.57
2018-01-07T22:14:49.160Z,6.97
2018-01-07T22:17:16.677Z,6.60
2018-01-07T22:19:44.221Z,6.43
2018-01-07T22:22:11.848Z,7.03
2018-01-07T22:24:39.409Z,6.97
2018-01-07T22:27:06.939Z,6.37
2018-01-07T22:29:34.457Z,6.70
2018-01-07T22:32:01.972Z,6.63
2018-01-07T22:34:29.481Z,5.93
2018-01-07T22:36:57.008Z,6.40
2018-01-07T22:39:24.523Z,6.30
2018-01-07T22:41:52.041Z,6.90
2018-01-07T22:44:19.687Z,6.80
2018-01-07T22:46:47.212Z,7.47
2018-01-07T22:49:14.756Z,6.97
2018-01-07T22:51:42.276Z,7.23
2018-01-07T22:54:09.793Z,6.90
2018-01-07T22:56:37.318Z,6.57
2018-01-07T22:59:04.912Z,7.13
2018-01-07T23:01:32.432Z,7.03
2018-01-07T23:03:59.978Z,7.10
2018-01-07T23:06:27.490Z,6.67
2018-01-07T23:08:55.079Z,6.60
2018-01-07T23:11:22.638Z,6.67
2018-01-07T23:13:50.203Z,6.77
2018-01-07T23:16:17.763Z,6.73
2018-01-07T23:18:45.319Z,6.83
2018-01-07T23:21:12.841Z,7.13
2018-01-07T23:23:40.358Z,7.10
2018-01-07T23:26:07.885Z,7.13
2018-01-07T23:28:35.413Z,6.83
2018-01-07T23:31:02.950Z,6.60
2018-01-07T23:33:30.467Z,6.37
2018-01-07T23:35:57.985Z,6.67
2018-01-07T23:38:25.509Z,7.10
2018-01-07T23:40:53.029Z,6.77
2018-01-07T23:43:20.573Z,6.97
2018-01-07T23:45:48.095Z,6.80
2018-01-07T23:48:15.608Z,7.30
2018-01-07T23:50:43.189Z,6.67
2018-01-07T23:53:10.721Z,6.90
2018-01-07T23:55:38.277Z,7.37
2018-01-07T23:58:05.793Z,7.13
